createdAt,value
2018-01-15T00:00:35.251Z,0.92
2018-01-15T00:01:35.187Z,0.90
2018-01-15T00:02:35.122Z,0.85
2018-01-15T00:03:35.058Z,0.90
2018-01-15T00:04:34.994Z,0.90
2018-01-15T00:05:34.931Z,0.89
2018-01-15T00:06:34.867Z,0.89
2018-01-15T00:07:34.805Z,0.89
2018-01-15T00:08:34.741Z,0.85
2018-01-15T00:09:34.676Z,0.89
2018-01-15T00:10:34.613Z,0.89
2018-01-15T00:11:34.548Z,0.89
2018-01-15T00:12:34.484Z,0.90
2018-01-15T00:13:34.422Z,0.89
2018-01-15T00:14:34.358Z,0.96
2018-01-15T00:15:34.296Z,0.96
2018-01-15T00:16:34.230Z,0.88
2018-01-15T00:17:34.168Z,0.89
2018-01-15T00:18:34.104Z,0.90
2018-01-15T00:19:34.039Z,0.94
2018-01-15T00:20:34.002Z,0.92
2018-01-15T00:21:33.912Z,0.89
2018-01-15T00:22:33.849Z,0.94
2018-01-15T00:23:33.789Z,0.89
2018-01-15T00:24:33.720Z,0.89
2018-01-15T00:25:33.656Z,0.97
2018-01-15T00:26:33.596Z,0.83
2018-01-15T00:27:33.530Z,0.76
2018-01-15T00:28:33.464Z,0.82
2018-01-15T00:29:33.405Z,0.82
2018-01-15T00:30:33.337Z,0.89
2018-01-15T00:31:33.274Z,0.96
2018-01-15T00:32:33.210Z,0.85
2018-01-15T00:33:33.148Z,0.86
2018-01-15T00:34:33.082Z,0.75
2018-01-15T00:35:33.020Z,0.72
2018-01-15T00:36:32.955Z,0.68
2018-01-15T00:37:32.890Z,0.72
2018-01-15T00:38:32.825Z,0.80
2018-01-15T00:39:32.762Z,0.75
2018-01-15T00:40:32.698Z,0.76
2018-01-15T00:41:32.640Z,0.85
2018-01-15T00:42:32.571Z,0.86
2018-01-15T00:43:32.510Z,0.83
2018-01-15T00:44:32.447Z,0.82
2018-01-15T00:45:32.386Z,0.89
2018-01-15T00:46:32.317Z,0.90
2018-01-15T00:47:32.252Z,0.88
2018-01-15T00:48:32.192Z,0.79
2018-01-15T00:49:32.121Z,0.70
2018-01-15T00:50:32.059Z,0.70
2018-01-15T00:51:31.997Z,0.67
2018-01-15T00:52:31.935Z,0.76
2018-01-15T00:53:31.869Z,0.65
2018-01-15T00:54:31.803Z,0.52
2018-01-15T00:55:31.741Z,0.42
2018-01-15T00:56:31.682Z,0.39
2018-01-15T00:57:31.616Z,0.48
2018-01-15T00:58:31.549Z,0.52
2018-01-15T00:59:31.489Z,0.57
2018-01-15T01:00:31.420Z,0.71
2018-01-15T01:01:31.358Z,0.71
2018-01-15T01:02:31.294Z,0.64
2018-01-15T01:03:31.231Z,0.70
2018-01-15T01:04:31.166Z,0.68
2018-01-15T01:05:31.102Z,0.72
2018-01-15T01:06:31.040Z,0.78
2018-01-15T01:07:30.974Z,0.68
2018-01-15T01:08:30.909Z,0.68
2018-01-15T01:09:30.854Z,0.71
2018-01-15T01:10:30.784Z,0.61
2018-01-15T01:11:30.719Z,0.61
2018-01-15T01:12:30.656Z,0.72
2018-01-15T01:13:30.601Z,0.68
2018-01-15T01:14:30.529Z,0.70
2018-01-15T01:15:30.462Z,0.70
2018-01-15T01:16:30.399Z,0.76
2018-01-15T01:17:30.335Z,0.64
2018-01-15T01:18:30.271Z,0.67
2018-01-15T01:19:30.207Z,0.75
2018-01-15T01:20:30.150Z,0.71
2018-01-15T01:21:30.084Z,0.72
2018-01-15T01:22:30.018Z,0.60
2018-01-15T01:23:29.952Z,0.65
2018-01-15T01:24:29.886Z,0.68
2018-01-15T01:25:29.826Z,0.82
2018-01-15T01:26:29.760Z,0.65
2018-01-15T01:27:29.697Z,0.67
2018-01-15T01:28:29.633Z,0.68
2018-01-15T01:29:29.570Z,0.71
2018-01-15T01:30:29.504Z,0.70
2018-01-15T01:31:29.441Z,0.83
2018-01-15T01:32:29.379Z,0.80
2018-01-15T01:33:29.315Z,0.71
2018-01-15T01:34:29.248Z,0.72
2018-01-15T01:35:29.187Z,0.68
2018-01-15T01:36:29.124Z,0.76
2018-01-15T01:37:29.057Z,0.76
2018-01-15T01:38:28.991Z,0.85
2018-01-15T01:39:28.929Z,0.79
2018-01-15T01:40:28.866Z,0.85
2018-01-15T01:41:28.802Z,0.89
2018-01-15T01:42:28.737Z,0.83
2018-01-15T01:43:28.673Z,0.88
2018-01-15T01:44:28.609Z,0.85
2018-01-15T01:45:28.544Z,0.86
2018-01-15T01:46:28.481Z,0.82
2018-01-15T01:47:28.416Z,0.83
2018-01-15T01:48:28.354Z,0.85
2018-01-15T01:49:28.295Z,0.85
2018-01-15T01:50:28.238Z,0.85
2018-01-15T01:51:28.163Z,0.79
2018-01-15T01:52:28.098Z,0.67
2018-01-15T01:53:28.035Z,0.65
2018-01-15T01:54:27.969Z,0.70
2018-01-15T01:55:27.905Z,0.58
2018-01-15T01:56:27.846Z,0.72
2018-01-15T01:57:27.780Z,0.70
2018-01-15T01:58:27.716Z,0.67
2018-01-15T01:59:27.651Z,0.71
2018-01-15T02:00:27.587Z,0.71
2018-01-15T02:01:27.524Z,0.64
2018-01-15T02:02:27.462Z,0.75
2018-01-15T02:03:27.397Z,0.70
2018-01-15T02:04:27.330Z,0.49
2018-01-15T02:05:27.271Z,0.53
2018-01-15T02:06:27.202Z,0.41
2018-01-15T02:07:27.139Z,0.49
2018-01-15T02:08:27.077Z,0.57
2018-01-15T02:09:27.013Z,0.53
2018-01-15T02:10:26.947Z,0.48
2018-01-15T02:11:26.883Z,0.45
2018-01-15T02:12:26.822Z,0.67
2018-01-15T02:13:26.756Z,0.68
2018-01-15T02:14:26.693Z,0.64
2018-01-15T02:15:26.628Z,0.67
2018-01-15T02:16:26.570Z,0.67
2018-01-15T02:17:26.500Z,0.64
2018-01-15T02:18:26.436Z,0.52
2018-01-15T02:19:26.371Z,0.51
2018-01-15T02:20:26.308Z,0.53
2018-01-15T02:21:26.244Z,0.53
2018-01-15T02:22:26.179Z,0.53
2018-01-15T02:23:26.116Z,0.58
2018-01-15T02:24:26.052Z,0.46
2018-01-15T02:25:25.988Z,0.51
2018-01-15T02:26:25.926Z,0.53
2018-01-15T02:27:25.859Z,0.70
2018-01-15T02:28:25.796Z,0.58
2018-01-15T02:29:25.732Z,0.49
2018-01-15T02:30:25.668Z,0.67
2018-01-15T02:31:25.604Z,0.57
2018-01-15T02:32:25.544Z,0.68
2018-01-15T02:33:25.477Z,0.53
2018-01-15T02:34:25.411Z,0.61
2018-01-15T02:35:25.348Z,0.51
2018-01-15T02:36:25.283Z,0.49
2018-01-15T02:37:25.250Z,0.45
2018-01-15T02:38:25.154Z,0.51
2018-01-15T02:39:25.091Z,0.52
2018-01-15T02:40:25.028Z,0.51
2018-01-15T02:41:24.964Z,0.58
2018-01-15T02:42:24.898Z,0.53
2018-01-15T02:43:24.836Z,0.52
2018-01-15T02:44:24.771Z,0.48
2018-01-15T02:45:24.706Z,0.52
2018-01-15T02:46:24.655Z,0.52
2018-01-15T02:47:24.581Z,0.53
2018-01-15T02:48:24.516Z,0.48
2018-01-15T02:49:24.451Z,0.51
2018-01-15T02:50:24.386Z,0.48
2018-01-15T02:51:24.322Z,0.48
2018-01-15T02:52:24.260Z,0.39
2018-01-15T02:53:24.198Z,0.48
2018-01-15T02:54:24.133Z,0.45
2018-01-15T02:55:24.065Z,0.43
2018-01-15T02:56:24.003Z,0.38
2018-01-15T02:57:23.941Z,0.39
2018-01-15T02:58:23.875Z,0.36
2018-01-15T02:59:23.811Z,0.16
2018-01-15T03:00:23.749Z,0.30
2018-01-15T03:01:23.684Z,0.25
2018-01-15T03:02:23.619Z,0.23
2018-01-15T03:03:23.555Z,0.42
2018-01-15T03:04:23.489Z,0.39
2018-01-15T03:05:23.425Z,0.38
2018-01-15T03:06:23.361Z,0.31
2018-01-15T03:07:23.297Z,0.38
2018-01-15T03:08:23.235Z,0.41
2018-01-15T03:09:23.169Z,0.39
2018-01-15T03:10:23.104Z,0.42
2018-01-15T03:11:23.041Z,0.43
2018-01-15T03:12:22.976Z,0.31
2018-01-15T03:13:22.914Z,0.31
2018-01-15T03:14:22.849Z,0.33
2018-01-15T03:15:22.783Z,0.36
2018-01-15T03:16:22.720Z,0.34
2018-01-15T03:17:22.656Z,0.38
2018-01-15T03:18:22.596Z,0.36
2018-01-15T03:19:22.528Z,0.48
2018-01-15T03:20:22.464Z,0.25
2018-01-15T03:21:22.402Z,0.24
2018-01-15T03:22:22.334Z,0.25
2018-01-15T03:23:22.272Z,0.24
2018-01-15T03:24:22.210Z,0.18
2018-01-15T03:25:22.144Z,0.20
2018-01-15T03:26:22.079Z,0.21
2018-01-15T03:27:22.015Z,0.20
2018-01-15T03:28:21.955Z,0.21
2018-01-15T03:29:21.887Z,0.10
2018-01-15T03:30:21.823Z,0.20
2018-01-15T03:31:21.757Z,0.18
2018-01-15T03:32:21.694Z,0.21
2018-01-15T03:33:21.631Z,0.20
2018-01-15T03:34:21.566Z,0.16
2018-01-15T03:35:21.501Z,0.30
2018-01-15T03:36:21.439Z,0.27
2018-01-15T03:37:21.373Z,0.24
2018-01-15T03:38:21.307Z,0.31
2018-01-15T03:39:21.242Z,0.23
2018-01-15T03:40:21.180Z,0.25
2018-01-15T03:41:21.115Z,0.21
2018-01-15T03:42:21.051Z,0.24
2018-01-15T03:43:20.987Z,0.23
2018-01-15T03:44:20.925Z,0.16
2018-01-15T03:45:20.858Z,0.15
2018-01-15T03:46:20.795Z,0.09
2018-01-15T03:47:20.729Z,0.12
2018-01-15T03:48:20.667Z,0.07
2018-01-15T03:49:20.602Z,0.09
2018-01-15T03:50:20.537Z,0.13
2018-01-15T03:51:20.474Z,0.03
2018-01-15T03:52:20.414Z,-0.04
2018-01-15T03:53:20.359Z,-0.12
2018-01-15T03:54:20.281Z,-0.04
2018-01-15T03:55:20.215Z,-0.05
2018-01-15T03:56:20.151Z,0.05
2018-01-15T03:57:20.089Z,-0.09
2018-01-15T03:58:20.025Z,-0.06
2018-01-15T03:59:19.959Z,-0.09
2018-01-15T04:00:19.895Z,-0.09
2018-01-15T04:01:19.829Z,-0.13
2018-01-15T04:02:19.767Z,-0.13
2018-01-15T04:03:19.702Z,-0.12
2018-01-15T04:04:19.637Z,-0.06
2018-01-15T04:05:19.575Z,-0.13
2018-01-15T04:06:19.506Z,-0.11
2018-01-15T04:07:19.447Z,-0.11
2018-01-15T04:08:19.379Z,-0.05
2018-01-15T04:09:19.316Z,-0.08
2018-01-15T04:10:19.250Z,-0.06
2018-01-15T04:11:19.189Z,-0.09
2018-01-15T04:12:19.123Z,-0.15
2018-01-15T04:13:19.056Z,-0.08
2018-01-15T04:14:18.991Z,-0.15
2018-01-15T04:15:18.927Z,-0.12
2018-01-15T04:16:18.866Z,-0.08
2018-01-15T04:17:18.799Z,-0.15
2018-01-15T04:18:18.733Z,-0.19
2018-01-15T04:19:18.668Z,-0.16
2018-01-15T04:20:18.604Z,-0.13
2018-01-15T04:21:18.539Z,-0.08
2018-01-15T04:22:18.476Z,0.05
2018-01-15T04:23:18.412Z,-0.01
2018-01-15T04:24:18.349Z,0.16
2018-01-15T04:25:18.290Z,-0.01
2018-01-15T04:26:18.219Z,0.16
2018-01-15T04:27:18.158Z,0.16
2018-01-15T04:28:18.090Z,0.13
2018-01-15T04:29:18.025Z,0.12
2018-01-15T04:30:17.958Z,0.05
2018-01-15T04:31:17.894Z,0.09
2018-01-15T04:32:17.831Z,0.03
2018-01-15T04:33:17.767Z,-0.11
2018-01-15T04:34:17.704Z,-0.09
2018-01-15T04:35:17.637Z,0.05
2018-01-15T04:36:17.575Z,-0.06
2018-01-15T04:37:17.592Z,-0.08
2018-01-15T04:38:17.444Z,-0.01
2018-01-15T04:39:17.385Z,-0.13
2018-01-15T04:40:17.317Z,-0.09
2018-01-15T04:41:17.252Z,-0.01
2018-01-15T04:42:17.186Z,0.06
2018-01-15T04:43:17.120Z,-0.11
2018-01-15T04:44:17.057Z,-0.08
2018-01-15T04:45:16.993Z,-0.09
2018-01-15T04:46:16.932Z,-0.09
2018-01-15T04:47:16.866Z,-0.12
2018-01-15T04:48:16.806Z,-0.09
2018-01-15T04:49:16.738Z,-0.12
2018-01-15T04:50:16.671Z,0.03
2018-01-15T04:51:16.605Z,-0.06
2018-01-15T04:52:16.546Z,-0.08
2018-01-15T04:53:16.478Z,-0.05
2018-01-15T04:54:16.412Z,-0.05
2018-01-15T04:55:16.349Z,-0.08
2018-01-15T04:56:16.285Z,0.07
2018-01-15T04:57:16.222Z,0.06
2018-01-15T04:58:16.157Z,-0.09
2018-01-15T04:59:16.091Z,0.06
2018-01-15T05:00:16.026Z,-0.04
2018-01-15T05:01:15.964Z,-0.09
2018-01-15T05:02:15.898Z,-0.09
2018-01-15T05:03:15.834Z,-0.08
2018-01-15T05:04:15.773Z,-0.12
2018-01-15T05:05:15.705Z,-0.11
2018-01-15T05:06:15.639Z,-0.13
2018-01-15T05:07:15.575Z,-0.09
2018-01-15T05:08:15.517Z,-0.05
2018-01-15T05:09:15.447Z,0.00
2018-01-15T05:10:15.385Z,-0.08
2018-01-15T05:11:15.322Z,-0.04
2018-01-15T05:12:15.255Z,-0.05
2018-01-15T05:13:15.188Z,-0.16
2018-01-15T05:14:15.126Z,-0.24
2018-01-15T05:15:15.061Z,-0.37
2018-01-15T05:16:14.996Z,-0.33
2018-01-15T05:17:14.931Z,-0.34
2018-01-15T05:18:14.867Z,-0.30
2018-01-15T05:19:14.805Z,-0.39
2018-01-15T05:20:14.739Z,-0.37
2018-01-15T05:21:14.678Z,-0.30
2018-01-15T05:22:14.612Z,-0.33
2018-01-15T05:23:14.544Z,-0.31
2018-01-15T05:24:14.483Z,-0.31
2018-01-15T05:25:14.414Z,-0.29
2018-01-15T05:26:14.354Z,-0.26
2018-01-15T05:27:14.286Z,-0.31
2018-01-15T05:28:14.220Z,-0.30
2018-01-15T05:29:14.157Z,-0.30
2018-01-15T05:30:14.091Z,-0.31
2018-01-15T05:31:14.028Z,-0.23
2018-01-15T05:32:13.966Z,-0.31
2018-01-15T05:33:13.901Z,-0.39
2018-01-15T05:34:13.834Z,-0.55
2018-01-15T05:35:13.767Z,-0.55
2018-01-15T05:36:13.703Z,-0.50
2018-01-15T05:37:13.640Z,-0.37
2018-01-15T05:38:13.573Z,-0.34
2018-01-15T05:39:13.510Z,-0.29
2018-01-15T05:40:13.444Z,-0.37
2018-01-15T05:41:13.380Z,-0.50
2018-01-15T05:42:13.314Z,-0.41
2018-01-15T05:43:13.251Z,-0.52
2018-01-15T05:44:13.184Z,-0.47
2018-01-15T05:45:13.139Z,-0.34
2018-01-15T05:46:13.055Z,-0.44
2018-01-15T05:47:12.992Z,-0.37
2018-01-15T05:48:12.929Z,-0.51
2018-01-15T05:49:12.861Z,-0.52
2018-01-15T05:50:12.798Z,-0.39
2018-01-15T05:51:12.731Z,-0.42
2018-01-15T05:52:12.667Z,-0.44
2018-01-15T05:53:12.604Z,-0.55
2018-01-15T05:54:12.553Z,-0.50
2018-01-15T05:55:12.473Z,-0.55
2018-01-15T05:56:12.408Z,-0.50
2018-01-15T05:57:12.346Z,-0.52
2018-01-15T05:58:12.275Z,-0.54
2018-01-15T05:59:12.212Z,-0.50
2018-01-15T06:00:12.147Z,-0.51
2018-01-15T06:01:12.087Z,-0.55
2018-01-15T06:02:12.029Z,-0.54
2018-01-15T06:03:11.955Z,-0.60
2018-01-15T06:04:11.889Z,-0.59
2018-01-15T06:05:11.824Z,-0.54
2018-01-15T06:06:11.758Z,-0.57
2018-01-15T06:07:11.704Z,-0.59
2018-01-15T06:08:11.629Z,-0.70
2018-01-15T06:09:11.564Z,-0.63
2018-01-15T06:10:11.497Z,-0.57
2018-01-15T06:11:11.432Z,-0.52
2018-01-15T06:12:11.375Z,-0.52
2018-01-15T06:13:11.304Z,-0.50
2018-01-15T06:14:11.239Z,-0.47
2018-01-15T06:15:11.170Z,-0.59
2018-01-15T06:16:11.109Z,-0.55
2018-01-15T06:17:11.045Z,-0.55
2018-01-15T06:18:10.985Z,-0.54
2018-01-15T06:19:10.914Z,-0.57
2018-01-15T06:20:10.849Z,-0.57
2018-01-15T06:21:10.795Z,-0.59
2018-01-15T06:22:10.718Z,-0.62
2018-01-15T06:23:10.662Z,-0.70
2018-01-15T06:24:10.593Z,-0.70
2018-01-15T06:25:10.525Z,-0.55
2018-01-15T06:26:10.459Z,-0.63
2018-01-15T06:27:10.395Z,-0.55
2018-01-15T06:28:10.330Z,-0.55
2018-01-15T06:29:10.267Z,-0.63
2018-01-15T06:30:10.199Z,-0.62
2018-01-15T06:31:10.133Z,-0.60
2018-01-15T06:32:10.072Z,-0.55
2018-01-15T06:33:10.007Z,-0.57
2018-01-15T06:34:09.938Z,-0.60
2018-01-15T06:35:09.879Z,-0.62
2018-01-15T06:36:09.811Z,-0.54
2018-01-15T06:37:09.744Z,-0.52
2018-01-15T06:38:09.678Z,-0.51
2018-01-15T06:39:09.614Z,-0.48
2018-01-15T06:40:09.550Z,-0.52
2018-01-15T06:41:09.483Z,-0.45
2018-01-15T06:42:09.418Z,-0.54
2018-01-15T06:43:09.356Z,-0.52
2018-01-15T06:44:09.289Z,-0.62
2018-01-15T06:45:09.227Z,-0.66
2018-01-15T06:46:09.157Z,-0.63
2018-01-15T06:47:09.098Z,-0.52
2018-01-15T06:48:09.032Z,-0.52
2018-01-15T06:49:08.968Z,-0.60
2018-01-15T06:50:08.898Z,-0.62
2018-01-15T06:51:08.835Z,-0.51
2018-01-15T06:52:08.770Z,-0.54
2018-01-15T06:53:08.706Z,-0.45
2018-01-15T06:54:08.639Z,-0.54
2018-01-15T06:55:08.578Z,-0.55
2018-01-15T06:56:08.510Z,-0.55
2018-01-15T06:57:08.445Z,-0.55
2018-01-15T06:58:08.379Z,-0.55
2018-01-15T06:59:08.323Z,-0.62
2018-01-15T07:00:08.250Z,-0.59
2018-01-15T07:01:08.184Z,-0.62
2018-01-15T07:02:08.118Z,-0.60
2018-01-15T07:03:08.054Z,-0.59
2018-01-15T07:04:07.990Z,-0.51
2018-01-15T07:05:07.924Z,-0.55
2018-01-15T07:06:07.858Z,-0.45
2018-01-15T07:07:07.795Z,-0.42
2018-01-15T07:08:07.730Z,-0.54
2018-01-15T07:09:07.665Z,-0.52
2018-01-15T07:10:07.601Z,-0.63
2018-01-15T07:11:07.536Z,-0.52
2018-01-15T07:12:07.471Z,-0.55
2018-01-15T07:13:07.408Z,-0.51
2018-01-15T07:14:07.340Z,-0.54
2018-01-15T07:15:07.276Z,-0.60
2018-01-15T07:16:07.211Z,-0.55
2018-01-15T07:17:07.147Z,-0.57
2018-01-15T07:18:07.084Z,-0.59
2018-01-15T07:19:07.015Z,-0.60
2018-01-15T07:20:06.950Z,-0.57
2018-01-15T07:21:06.886Z,-0.55
2018-01-15T07:22:06.819Z,-0.57
2018-01-15T07:23:06.755Z,-0.57
2018-01-15T07:24:06.696Z,-0.48
2018-01-15T07:25:06.627Z,-0.50
2018-01-15T07:26:06.560Z,-0.54
2018-01-15T07:27:06.496Z,-0.48
2018-01-15T07:28:06.433Z,-0.63
2018-01-15T07:29:06.366Z,-0.50
2018-01-15T07:30:06.299Z,-0.47
2018-01-15T07:31:06.235Z,-0.59
2018-01-15T07:32:06.175Z,-0.50
2018-01-15T07:33:06.109Z,-0.54
2018-01-15T07:34:06.041Z,-0.60
2018-01-15T07:35:05.974Z,-0.50
2018-01-15T07:36:05.978Z,-0.54
2018-01-15T07:37:05.846Z,-0.47
2018-01-15T07:38:05.782Z,-0.50
2018-01-15T07:39:05.716Z,-0.45
2018-01-15T07:40:05.651Z,-0.54
2018-01-15T07:41:05.586Z,-0.59
2018-01-15T07:42:05.518Z,-0.59
2018-01-15T07:43:05.454Z,-0.52
2018-01-15T07:44:05.396Z,-0.65
2018-01-15T07:45:05.332Z,-0.57
2018-01-15T07:46:05.260Z,-0.42
2018-01-15T07:47:05.197Z,-0.55
2018-01-15T07:48:05.135Z,-0.59
2018-01-15T07:49:05.068Z,-0.52
2018-01-15T07:50:05.004Z,-0.52
2018-01-15T07:51:04.937Z,-0.47
2018-01-15T07:52:04.874Z,-0.54
2018-01-15T07:53:04.809Z,-0.41
2018-01-15T07:54:04.744Z,-0.42
2018-01-15T07:55:04.679Z,-0.31
2018-01-15T07:56:04.612Z,-0.37
2018-01-15T07:57:04.549Z,-0.29
2018-01-15T07:58:04.487Z,-0.22
2018-01-15T07:59:04.420Z,-0.22
2018-01-15T08:00:04.353Z,-0.16
2018-01-15T08:01:04.288Z,-0.22
2018-01-15T08:02:04.224Z,-0.11
2018-01-15T08:03:04.159Z,-0.09
2018-01-15T08:04:04.096Z,-0.11
2018-01-15T08:05:04.032Z,-0.01
2018-01-15T08:06:03.964Z,0.02
2018-01-15T08:07:03.901Z,0.09
2018-01-15T08:08:03.837Z,0.18
2018-01-15T08:09:03.771Z,0.10
2018-01-15T08:10:03.702Z,0.21
2018-01-15T08:11:03.640Z,0.16
2018-01-15T08:12:03.577Z,0.12
2018-01-15T08:13:03.519Z,0.12
2018-01-15T08:14:03.448Z,0.02
2018-01-15T08:15:03.389Z,0.00
2018-01-15T08:16:03.318Z,0.03
2018-01-15T08:17:03.260Z,0.00
2018-01-15T08:18:03.191Z,0.07
2018-01-15T08:19:03.124Z,0.07
2018-01-15T08:20:03.061Z,0.02
2018-01-15T08:21:02.997Z,0.10
2018-01-15T08:22:02.934Z,0.03
2018-01-15T08:23:02.867Z,0.05
2018-01-15T08:24:02.806Z,0.13
2018-01-15T08:25:02.741Z,0.10
2018-01-15T08:26:02.676Z,0.20
2018-01-15T08:27:02.610Z,0.20
2018-01-15T08:28:02.544Z,0.18
2018-01-15T08:29:02.480Z,0.23
2018-01-15T08:30:02.443Z,0.15
2018-01-15T08:31:02.354Z,0.13
2018-01-15T08:32:02.290Z,0.06
2018-01-15T08:33:02.223Z,0.18
2018-01-15T08:34:02.158Z,0.16
2018-01-15T08:35:02.092Z,0.09
2018-01-15T08:36:02.031Z,0.21
2018-01-15T08:37:01.968Z,0.13
2018-01-15T08:38:01.903Z,0.18
2018-01-15T08:39:01.839Z,0.25
2018-01-15T08:40:01.771Z,0.45
2018-01-15T08:41:01.707Z,0.53
2018-01-15T08:42:01.641Z,0.67
2018-01-15T08:43:01.579Z,0.70
2018-01-15T08:44:01.514Z,0.45
2018-01-15T08:45:01.448Z,0.46
2018-01-15T08:46:01.388Z,0.41
2018-01-15T08:47:01.319Z,0.45
2018-01-15T08:48:01.255Z,0.39
2018-01-15T08:49:01.191Z,0.30
2018-01-15T08:50:01.128Z,0.25
2018-01-15T08:51:01.065Z,0.28
2018-01-15T08:52:01.024Z,0.25
2018-01-15T08:53:00.935Z,0.24
2018-01-15T08:54:00.870Z,0.38
2018-01-15T08:55:00.844Z,0.41
2018-01-15T08:56:00.744Z,0.43
2018-01-15T08:57:00.679Z,0.51
2018-01-15T08:58:00.615Z,0.53
2018-01-15T08:59:00.548Z,0.53
2018-01-15T09:00:00.477Z,0.46
2018-01-15T09:01:00.422Z,0.41
2018-01-15T09:02:00.358Z,0.52
2018-01-15T09:03:00.293Z,0.53
2018-01-15T09:04:00.230Z,0.61
2018-01-15T09:05:00.164Z,0.62
2018-01-15T09:06:00.102Z,0.61
2018-01-15T09:07:00.037Z,0.70
2018-01-15T09:07:59.976Z,0.82
2018-01-15T09:08:59.911Z,0.83
2018-01-15T09:09:59.845Z,0.83
2018-01-15T09:10:59.779Z,0.90
2018-01-15T09:11:59.717Z,0.83
2018-01-15T09:12:59.652Z,0.96
2018-01-15T09:13:59.586Z,1.01
2018-01-15T09:14:59.528Z,1.01
2018-01-15T09:15:59.459Z,1.08
2018-01-15T09:16:59.395Z,1.12
2018-01-15T09:17:59.330Z,1.39
2018-01-15T09:18:59.312Z,1.37
2018-01-15T09:19:59.204Z,1.42
2018-01-15T09:20:59.143Z,1.51
2018-01-15T09:21:59.075Z,1.62
2018-01-15T09:22:59.012Z,1.82
2018-01-15T09:23:58.948Z,1.73
2018-01-15T09:24:58.884Z,1.68
2018-01-15T09:25:58.820Z,1.89
2018-01-15T09:26:58.756Z,1.98
2018-01-15T09:27:58.693Z,2.10
2018-01-15T09:28:58.632Z,1.89
2018-01-15T09:29:58.568Z,1.83
2018-01-15T09:30:58.503Z,2.02
2018-01-15T09:31:58.440Z,2.15
2018-01-15T09:32:58.377Z,2.23
2018-01-15T09:33:58.313Z,2.28
2018-01-15T09:34:58.247Z,2.41
2018-01-15T09:35:58.186Z,2.44
2018-01-15T09:36:58.141Z,2.33
2018-01-15T09:37:58.059Z,2.46
2018-01-15T09:38:57.996Z,2.56
2018-01-15T09:39:57.934Z,2.48
2018-01-15T09:40:57.924Z,2.52
2018-01-15T09:41:57.810Z,2.48
2018-01-15T09:42:57.745Z,2.34
2018-01-15T09:43:57.680Z,2.48
2018-01-15T09:44:57.622Z,2.41
2018-01-15T09:45:57.555Z,2.41
2018-01-15T09:46:57.493Z,2.45
2018-01-15T09:47:57.431Z,2.35
2018-01-15T09:48:57.368Z,2.20
2018-01-15T09:49:57.303Z,2.09
2018-01-15T09:50:57.242Z,2.09
2018-01-15T09:51:57.177Z,1.98
2018-01-15T09:52:57.115Z,1.71
2018-01-15T09:53:57.052Z,1.52
2018-01-15T09:54:56.991Z,1.65
2018-01-15T09:55:56.928Z,1.76
2018-01-15T09:56:56.863Z,1.85
2018-01-15T09:57:56.802Z,1.94
2018-01-15T09:58:56.738Z,2.12
2018-01-15T09:59:56.677Z,2.20
2018-01-15T10:00:56.614Z,2.33
2018-01-15T10:01:56.549Z,2.44
2018-01-15T10:02:56.485Z,2.35
2018-01-15T10:03:56.423Z,2.30
2018-01-15T10:04:56.360Z,2.17
2018-01-15T10:05:56.299Z,2.13
2018-01-15T10:06:56.237Z,2.16
2018-01-15T10:07:56.173Z,2.20
2018-01-15T10:08:56.111Z,2.23
2018-01-15T10:09:56.043Z,2.27
2018-01-15T10:10:55.983Z,2.15
2018-01-15T10:11:55.919Z,2.09
2018-01-15T10:12:55.857Z,2.04
2018-01-15T10:13:55.792Z,2.10
2018-01-15T10:14:55.729Z,2.22
2018-01-15T10:15:55.667Z,2.41
2018-01-15T10:16:55.605Z,2.53
2018-01-15T10:17:55.543Z,2.53
2018-01-15T10:18:55.479Z,2.59
2018-01-15T10:19:55.418Z,2.64
2018-01-15T10:20:55.356Z,2.79
2018-01-15T10:21:55.289Z,2.82
2018-01-15T10:22:55.227Z,2.71
2018-01-15T10:23:55.165Z,2.77
2018-01-15T10:24:55.102Z,2.74
2018-01-15T10:25:55.039Z,2.71
2018-01-15T10:26:54.975Z,2.74
2018-01-15T10:27:54.914Z,2.73
2018-01-15T10:28:54.851Z,2.58
2018-01-15T10:29:54.786Z,2.48
2018-01-15T10:30:54.725Z,2.40
2018-01-15T10:31:54.664Z,2.46
2018-01-15T10:32:54.599Z,2.63
2018-01-15T10:33:54.537Z,2.63
2018-01-15T10:34:54.477Z,2.52
2018-01-15T10:35:54.410Z,2.46
2018-01-15T10:36:54.348Z,2.48
2018-01-15T10:37:54.285Z,2.53
2018-01-15T10:38:54.224Z,2.46
2018-01-15T10:39:54.160Z,2.56
2018-01-15T10:40:54.098Z,2.56
2018-01-15T10:41:54.036Z,2.67
2018-01-15T10:42:53.974Z,2.69
2018-01-15T10:43:53.909Z,2.59
2018-01-15T10:44:53.849Z,2.55
2018-01-15T10:45:53.785Z,2.56
2018-01-15T10:46:53.726Z,2.70
2018-01-15T10:47:53.661Z,2.64
2018-01-15T10:48:53.597Z,2.66
2018-01-15T10:49:53.536Z,2.58
2018-01-15T10:50:53.470Z,2.63
2018-01-15T10:51:53.407Z,2.76
2018-01-15T10:52:53.348Z,3.00
2018-01-15T10:53:53.284Z,2.97
2018-01-15T10:54:53.218Z,2.91
2018-01-15T10:55:53.157Z,2.87
2018-01-15T10:56:53.095Z,2.74
2018-01-15T10:57:53.029Z,2.77
2018-01-15T10:58:52.966Z,2.79
2018-01-15T10:59:52.906Z,2.67
2018-01-15T11:00:52.841Z,2.88
2018-01-15T11:01:52.785Z,2.89
2018-01-15T11:02:52.716Z,2.87
2018-01-15T11:03:52.654Z,2.95
2018-01-15T11:04:52.590Z,3.20
2018-01-15T11:05:52.526Z,3.25
2018-01-15T11:06:52.464Z,3.34
2018-01-15T11:07:52.402Z,3.28
2018-01-15T11:08:52.339Z,3.23
2018-01-15T11:09:52.276Z,3.10
2018-01-15T11:10:52.213Z,2.95
2018-01-15T11:11:52.168Z,2.92
2018-01-15T11:12:52.088Z,2.89
2018-01-15T11:13:52.029Z,3.02
2018-01-15T11:14:51.967Z,3.16
2018-01-15T11:15:51.902Z,3.28
2018-01-15T11:16:51.839Z,3.61
2018-01-15T11:17:51.774Z,3.75
2018-01-15T11:18:51.715Z,3.82
2018-01-15T11:19:51.658Z,3.54
2018-01-15T11:20:51.589Z,3.20
2018-01-15T11:21:51.524Z,3.13
2018-01-15T11:22:51.515Z,3.09
2018-01-15T11:23:51.423Z,3.20
2018-01-15T11:24:51.337Z,3.00
2018-01-15T11:25:51.274Z,3.05
2018-01-15T11:26:51.217Z,3.05
2018-01-15T11:27:51.151Z,3.18
2018-01-15T11:28:51.086Z,3.49
2018-01-15T11:29:51.050Z,3.68
2018-01-15T11:30:50.976Z,3.68
2018-01-15T11:31:50.899Z,3.75
2018-01-15T11:32:50.838Z,3.88
2018-01-15T11:33:50.775Z,3.97
2018-01-15T11:34:50.712Z,4.06
2018-01-15T11:35:50.652Z,4.16
2018-01-15T11:36:50.592Z,4.07
2018-01-15T11:37:50.525Z,3.89
2018-01-15T11:38:50.462Z,3.80
2018-01-15T11:39:50.403Z,3.78
2018-01-15T11:40:50.341Z,3.70
2018-01-15T11:41:50.275Z,3.94
2018-01-15T11:42:50.214Z,4.04
2018-01-15T11:43:50.152Z,4.06
2018-01-15T11:44:50.089Z,4.08
2018-01-15T11:45:50.028Z,4.10
2018-01-15T11:46:49.967Z,4.18
2018-01-15T11:47:49.904Z,4.14
2018-01-15T11:48:49.842Z,3.97
2018-01-15T11:49:49.780Z,3.79
2018-01-15T11:50:49.717Z,3.54
2018-01-15T11:51:49.657Z,3.61
2018-01-15T11:52:49.600Z,3.65
2018-01-15T11:53:49.532Z,3.53
2018-01-15T11:54:49.460Z,3.64
2018-01-15T11:55:49.408Z,3.70
2018-01-15T11:56:49.347Z,3.47
2018-01-15T11:57:49.284Z,3.58
2018-01-15T11:58:49.223Z,3.64
2018-01-15T11:59:49.168Z,3.79
2018-01-15T12:00:49.127Z,3.61
2018-01-15T12:01:49.038Z,3.60
2018-01-15T12:02:48.976Z,3.57
2018-01-15T12:03:48.913Z,3.47
2018-01-15T12:04:48.852Z,3.54
2018-01-15T12:05:48.789Z,3.60
2018-01-15T12:06:48.729Z,3.68
2018-01-15T12:07:48.668Z,3.50
2018-01-15T12:08:48.607Z,3.57
2018-01-15T12:09:48.542Z,3.70
2018-01-15T12:10:48.478Z,3.86
2018-01-15T12:11:48.421Z,3.86
2018-01-15T12:12:48.355Z,3.79
2018-01-15T12:13:48.295Z,3.71
2018-01-15T12:14:48.231Z,3.64
2018-01-15T12:15:48.168Z,3.62
2018-01-15T12:16:48.116Z,3.70
2018-01-15T12:17:48.067Z,3.83
2018-01-15T12:18:47.982Z,4.03
2018-01-15T12:19:47.975Z,4.06
2018-01-15T12:20:47.859Z,4.01
2018-01-15T12:21:47.796Z,4.12
2018-01-15T12:22:47.751Z,4.10
2018-01-15T12:23:47.672Z,4.19
2018-01-15T12:24:47.627Z,4.22
2018-01-15T12:25:47.548Z,4.26
2018-01-15T12:26:47.488Z,4.24
2018-01-15T12:27:47.424Z,4.33
2018-01-15T12:28:47.363Z,4.29
2018-01-15T12:29:47.301Z,4.29
2018-01-15T12:30:47.239Z,4.39
2018-01-15T12:31:47.179Z,4.51
2018-01-15T12:32:47.114Z,4.46
2018-01-15T12:33:47.053Z,4.64
2018-01-15T12:34:46.991Z,4.73
2018-01-15T12:35:46.933Z,4.75
2018-01-15T12:36:46.868Z,4.73
2018-01-15T12:37:46.809Z,4.84
2018-01-15T12:38:46.748Z,4.92
2018-01-15T12:39:46.682Z,4.88
2018-01-15T12:40:46.625Z,4.75
2018-01-15T12:41:46.560Z,4.72
2018-01-15T12:42:46.498Z,4.73
2018-01-15T12:43:46.437Z,4.70
2018-01-15T12:44:46.376Z,4.76
2018-01-15T12:45:46.313Z,4.61
2018-01-15T12:46:46.247Z,4.67
2018-01-15T12:47:46.190Z,4.72
2018-01-15T12:48:46.130Z,4.59
2018-01-15T12:49:46.069Z,4.65
2018-01-15T12:50:46.007Z,4.55
2018-01-15T12:51:45.945Z,4.59
2018-01-15T12:52:45.886Z,4.54
2018-01-15T12:53:45.823Z,4.29
2018-01-15T12:54:45.761Z,4.28
2018-01-15T12:55:45.701Z,4.29
2018-01-15T12:56:45.638Z,4.15
2018-01-15T12:57:45.578Z,4.01
2018-01-15T12:58:45.516Z,3.98
2018-01-15T12:59:45.454Z,4.03
2018-01-15T13:00:45.394Z,4.04
2018-01-15T13:01:45.333Z,4.15
2018-01-15T13:02:45.269Z,4.32
2018-01-15T13:03:45.209Z,4.12
2018-01-15T13:04:45.148Z,4.14
2018-01-15T13:05:45.086Z,4.12
2018-01-15T13:06:45.027Z,4.15
2018-01-15T13:07:44.963Z,4.10
2018-01-15T13:08:44.900Z,4.33
2018-01-15T13:09:44.839Z,4.39